KACB/ACB METAR and TAF weather

Enter ICAO airport designator
Station Type Date Time Source
KACB METAR 2018/10/16 13:55 UTC NOAA

KACB 161355Z AUTO 19008G16KT 10SM BKN070 OVC090 06/00 A2994 RMK AO2 T00601004


Station Type Date Time Source
KACB Decoded METAR 2018/10/16 13:55 UTC NOAA

Bellaire, Antrim County Airport, MI, United States (KACB) 44-59-18N 085-11-54W
Oct 16, 2018 - 09:55 AM EDT / 2018.10.16 1355 UTC
Wind: from the S (190 degrees) at 9 MPH (8 KT) gusting to 18 MPH (16 KT):0
Visibility: 10 mile(s):0
Sky conditions: overcast
Temperature: 42.8 F (6.0 C)
Dew Point: 31.3 F (-0.4 C)
Relative Humidity: 63%
Pressure (altimeter): 29.94 in. Hg (1013 hPa)
ob: KACB 161355Z AUTO 19008G16KT 10SM BKN070 OVC090 06/00 A2994 RMK AO2 T00601004
cycle: 14

Station Type Date Time Source
KACB TAF UTC NOAA

Error!


Example: see airport list